createdAt,value
2022-09-20T00:00:18.441Z,10.66
2022-09-20T00:01:22.375Z,10.66
2022-09-20T00:02:23.886Z,10.63
2022-09-20T00:03:25.383Z,10.60
2022-09-20T00:04:27.133Z,10.60
2022-09-20T00:05:28.632Z,10.82
2022-09-20T00:06:31.528Z,10.84
2022-09-20T00:07:32.940Z,10.77
2022-09-20T00:08:34.836Z,10.72
2022-09-20T00:09:36.602Z,10.71
2022-09-20T00:10:39.360Z,10.72
2022-09-20T00:11:40.807Z,10.63
2022-09-20T00:12:42.258Z,10.66
2022-09-20T00:13:45.511Z,10.66
2022-09-20T00:14:46.998Z,10.62
2022-09-20T00:15:48.549Z,10.52
2022-09-20T00:16:50.085Z,10.54
2022-09-20T00:17:51.565Z,10.49
2022-09-20T00:18:56.065Z,10.45
2022-09-20T00:19:57.681Z,10.43
2022-09-20T00:21:00.436Z,10.43
2022-09-20T00:22:01.795Z,10.37
2022-09-20T00:23:03.554Z,10.44
2022-09-20T00:24:06.299Z,10.43
2022-09-20T00:25:08.629Z,10.40
2022-09-20T00:26:10.049Z,10.43
2022-09-20T00:27:11.891Z,10.46
2022-09-20T00:28:13.355Z,10.48
2022-09-20T00:29:15.022Z,10.53
2022-09-20T00:30:16.564Z,10.59
2022-09-20T00:31:18.988Z,10.58
2022-09-20T00:32:20.481Z,10.56
2022-09-20T00:33:23.302Z,10.62
2022-09-20T00:34:43.929Z,10.59
2022-09-20T00:35:46.484Z,10.44
2022-09-20T00:36:47.969Z,10.43
2022-09-20T00:37:49.471Z,10.43
2022-09-20T00:38:56.001Z,10.42
2022-09-20T00:39:57.488Z,10.43
2022-09-20T00:40:58.910Z,10.44
2022-09-20T00:42:00.334Z,10.49
2022-09-20T00:43:01.790Z,10.47
2022-09-20T00:44:43.189Z,10.44
2022-09-20T00:45:48.052Z,10.40
2022-09-20T00:46:49.655Z,10.52
2022-09-20T00:48:15.848Z,10.49
2022-09-20T00:49:28.822Z,10.54
2022-09-20T00:50:33.413Z,10.56
2022-09-20T00:51:41.349Z,10.52
2022-09-20T00:52:48.584Z,10.54
2022-09-20T00:53:51.899Z,10.65
2022-09-20T00:54:54.189Z,10.66
2022-09-20T00:56:03.947Z,10.61
2022-09-20T00:57:05.472Z,10.51
2022-09-20T00:58:08.057Z,10.43
2022-09-20T00:59:23.818Z,10.53
2022-09-20T01:00:26.469Z,10.54
2022-09-20T01:01:28.062Z,10.41
2022-09-20T01:02:31.622Z,10.40
2022-09-20T01:03:36.677Z,10.34
2022-09-20T01:04:41.497Z,10.30
2022-09-20T01:05:44.689Z,10.23
2022-09-20T01:06:46.906Z,10.19
2022-09-20T01:07:50.945Z,10.18
2022-09-20T01:08:56.566Z,10.17
2022-09-20T01:09:57.994Z,10.16
2022-09-20T01:11:00.172Z,10.15
2022-09-20T01:12:05.862Z,10.12
2022-09-20T01:13:07.498Z,10.11
2022-09-20T01:14:13.992Z,10.15
2022-09-20T01:15:16.000Z,10.21
2022-09-20T01:16:19.245Z,10.35
2022-09-20T01:17:25.617Z,10.43
2022-09-20T01:18:29.809Z,10.48
2022-09-20T01:19:46.096Z,10.67
2022-09-20T01:20:48.468Z,10.58
2022-09-20T01:21:50.440Z,10.67
2022-09-20T01:23:12.342Z,10.66
2022-09-20T01:24:27.574Z,10.70
2022-09-20T01:25:48.072Z,10.67
2022-09-20T01:27:13.758Z,10.67
2022-09-20T01:28:16.077Z,10.57
2022-09-20T01:29:41.786Z,10.50
2022-09-20T01:31:04.980Z,10.40
2022-09-20T01:32:12.561Z,10.40
2022-09-20T01:33:43.584Z,10.36
2022-09-20T01:34:48.269Z,10.36
2022-09-20T01:35:53.852Z,10.40
2022-09-20T01:37:06.461Z,10.43
2022-09-20T01:38:29.095Z,10.41
2022-09-20T01:39:58.697Z,10.36
2022-09-20T01:41:19.298Z,10.45
2022-09-20T01:42:27.747Z,10.40
2022-09-20T01:43:50.800Z,10.36
2022-09-20T01:45:01.078Z,10.31
2022-09-20T01:46:22.331Z,10.33
2022-09-20T01:47:40.282Z,10.38
2022-09-20T01:48:42.715Z,10.39
2022-09-20T01:50:21.734Z,10.34
2022-09-20T01:51:48.141Z,10.35
2022-09-20T01:53:10.677Z,10.35
2022-09-20T01:54:38.174Z,10.34
2022-09-20T01:55:52.583Z,10.35
2022-09-20T01:57:31.164Z,10.30
2022-09-20T01:59:22.713Z,10.30
2022-09-20T02:00:44.135Z,10.18
2022-09-20T02:02:06.798Z,10.20
2022-09-20T02:03:31.694Z,10.25
2022-09-20T02:05:07.266Z,10.30
2022-09-20T02:06:20.698Z,10.31
2022-09-20T02:07:39.034Z,10.34
2022-09-20T02:08:50.019Z,10.33
2022-09-20T02:10:29.078Z,10.35
2022-09-20T02:12:15.059Z,10.39
2022-09-20T02:13:32.085Z,10.42
2022-09-20T02:14:51.321Z,10.55
2022-09-20T02:16:06.549Z,10.52
2022-09-20T02:17:07.920Z,10.51
2022-09-20T02:18:21.961Z,10.54
2022-09-20T02:19:32.815Z,10.55
2022-09-20T02:20:52.688Z,10.51
2022-09-20T02:22:11.482Z,10.49
2022-09-20T02:23:27.327Z,10.54
2022-09-20T02:24:30.468Z,10.56
2022-09-20T02:25:49.665Z,10.55
2022-09-20T02:27:23.908Z,10.45
2022-09-20T02:28:52.952Z,10.35
2022-09-20T02:30:16.639Z,10.34
2022-09-20T02:31:42.832Z,10.32
2022-09-20T02:32:53.492Z,10.31
2022-09-20T02:34:18.269Z,10.44
2022-09-20T02:35:37.323Z,10.39
2022-09-20T02:36:55.921Z,10.37
2022-09-20T02:38:25.884Z,10.39
2022-09-20T02:39:40.060Z,10.43
2022-09-20T02:40:44.320Z,10.35
2022-09-20T02:41:55.060Z,10.28
2022-09-20T02:43:21.831Z,10.32
2022-09-20T02:44:36.960Z,10.39
2022-09-20T02:45:38.373Z,10.39
2022-09-20T02:46:56.046Z,10.36
2022-09-20T02:48:03.187Z,10.36
2022-09-20T02:49:11.225Z,10.52
2022-09-20T02:50:51.700Z,10.50
2022-09-20T02:51:58.431Z,10.44
2022-09-20T02:53:18.289Z,10.35
2022-09-20T02:54:30.068Z,10.34
2022-09-20T02:55:57.793Z,10.36
2022-09-20T02:57:15.555Z,10.33
2022-09-20T02:58:27.420Z,10.10
2022-09-20T02:59:44.341Z,9.88
2022-09-20T03:01:10.630Z,10.00
2022-09-20T03:02:20.918Z,10.05
2022-09-20T03:03:38.077Z,9.94
2022-09-20T03:04:45.292Z,10.01
2022-09-20T03:06:17.005Z,10.06
2022-09-20T03:07:38.746Z,10.17
2022-09-20T03:08:54.685Z,10.20
2022-09-20T03:10:31.194Z,10.08
2022-09-20T03:12:10.216Z,10.08
2022-09-20T03:13:42.880Z,10.18
2022-09-20T03:15:11.832Z,10.29
2022-09-20T03:16:13.246Z,10.42
2022-09-20T03:17:27.325Z,10.40
2022-09-20T03:18:42.194Z,10.37
2022-09-20T03:20:00.089Z,10.13
2022-09-20T03:21:17.292Z,10.07
2022-09-20T03:22:36.855Z,10.15
2022-09-20T03:24:13.624Z,10.05
2022-09-20T03:25:37.897Z,10.01
2022-09-20T03:26:42.507Z,10.01
2022-09-20T03:28:01.516Z,10.09
2022-09-20T03:29:08.176Z,10.19
2022-09-20T03:30:28.080Z,10.27
2022-09-20T03:31:54.272Z,10.22
2022-09-20T03:33:07.136Z,10.20
2022-09-20T03:34:11.615Z,10.29
2022-09-20T03:35:39.237Z,10.32
2022-09-20T03:36:49.487Z,10.30
2022-09-20T03:38:21.893Z,10.28
2022-09-20T03:39:28.923Z,10.26
2022-09-20T03:40:54.721Z,10.22
2022-09-20T03:42:04.353Z,10.29
2022-09-20T03:43:56.697Z,10.44
2022-09-20T03:45:15.949Z,10.39
2022-09-20T03:46:43.366Z,10.31
2022-09-20T03:48:30.348Z,10.25
2022-09-20T03:50:00.908Z,10.27
2022-09-20T03:51:31.612Z,10.44
2022-09-20T03:53:11.436Z,10.45
2022-09-20T03:54:52.673Z,10.42
2022-09-20T03:56:19.132Z,10.50
2022-09-20T03:57:28.529Z,10.43
2022-09-20T03:58:55.236Z,10.36
2022-09-20T04:00:29.507Z,10.28
2022-09-20T04:01:54.219Z,10.21
2022-09-20T04:03:19.695Z,10.13
2022-09-20T04:04:49.930Z,10.10
2022-09-20T04:06:00.083Z,10.12
2022-09-20T04:07:20.292Z,10.11
2022-09-20T04:08:36.756Z,10.09
2022-09-20T04:10:16.100Z,10.08
2022-09-20T04:11:51.687Z,10.08
2022-09-20T04:13:02.179Z,10.06
2022-09-20T04:14:25.501Z,10.15
2022-09-20T04:15:40.243Z,10.13
2022-09-20T04:16:54.403Z,10.14
2022-09-20T04:18:03.623Z,10.15
2022-09-20T04:19:18.254Z,10.16
2022-09-20T04:20:31.910Z,10.17
2022-09-20T04:21:40.147Z,10.19
2022-09-20T04:22:44.641Z,10.15
2022-09-20T04:23:56.271Z,10.16
2022-09-20T04:25:04.420Z,10.17
2022-09-20T04:26:06.168Z,10.25
2022-09-20T04:27:37.777Z,10.18
2022-09-20T04:28:48.999Z,10.25
2022-09-20T04:29:58.669Z,10.32
2022-09-20T04:31:09.766Z,10.45
2022-09-20T04:32:35.429Z,10.44
2022-09-20T04:33:43.012Z,10.29
2022-09-20T04:35:30.476Z,10.25
2022-09-20T04:36:54.602Z,10.21
2022-09-20T04:37:56.994Z,10.16
2022-09-20T04:39:02.114Z,10.15
2022-09-20T04:40:23.975Z,10.06
2022-09-20T04:42:10.427Z,10.06
2022-09-20T04:43:52.588Z,10.01
2022-09-20T04:45:08.319Z,10.01
2022-09-20T04:46:40.701Z,10.06
2022-09-20T04:48:04.363Z,10.04
2022-09-20T04:49:34.073Z,10.03
2022-09-20T04:51:20.520Z,9.98
2022-09-20T04:52:55.809Z,10.01
2022-09-20T04:54:09.394Z,9.94
2022-09-20T04:55:23.961Z,9.89
2022-09-20T04:57:07.881Z,9.88
2022-09-20T04:58:36.336Z,9.84
2022-09-20T05:00:04.399Z,9.79
2022-09-20T05:01:16.718Z,9.75
2022-09-20T05:02:35.473Z,9.76
2022-09-20T05:03:55.426Z,9.80
2022-09-20T05:05:10.129Z,9.94
2022-09-20T05:06:27.497Z,9.94
2022-09-20T05:07:56.776Z,9.89
2022-09-20T05:09:17.133Z,9.91
2022-09-20T05:10:41.094Z,9.94
2022-09-20T05:12:30.493Z,9.96
2022-09-20T05:13:50.572Z,10.03
2022-09-20T05:15:04.530Z,10.06
2022-09-20T05:16:24.782Z,9.94
2022-09-20T05:17:45.752Z,9.86
2022-09-20T05:19:23.728Z,9.84
2022-09-20T05:20:49.327Z,9.89
2022-09-20T05:22:19.177Z,9.87
2022-09-20T05:23:46.472Z,9.82
2022-09-20T05:24:53.038Z,9.87
2022-09-20T05:26:14.899Z,9.87
2022-09-20T05:27:29.933Z,9.96
2022-09-20T05:28:49.966Z,9.75
2022-09-20T05:30:22.987Z,9.62
2022-09-20T05:31:28.239Z,9.62
2022-09-20T05:32:41.805Z,9.66
2022-09-20T05:34:07.734Z,9.71
2022-09-20T05:35:36.519Z,9.72
2022-09-20T05:37:01.887Z,9.70
2022-09-20T05:38:41.359Z,9.66
2022-09-20T05:40:06.102Z,9.66
2022-09-20T05:41:31.882Z,9.63
2022-09-20T05:42:44.474Z,9.67
2022-09-20T05:44:23.067Z,9.78
2022-09-20T05:45:39.759Z,9.92
2022-09-20T05:47:06.287Z,10.00
2022-09-20T05:48:20.099Z,10.06
2022-09-20T05:49:45.129Z,10.20
2022-09-20T05:51:09.791Z,10.13
2022-09-20T05:52:52.782Z,9.99
2022-09-20T05:54:37.588Z,9.90
2022-09-20T05:55:49.477Z,9.85
2022-09-20T05:57:31.313Z,9.85
2022-09-20T05:59:03.963Z,9.84
2022-09-20T06:00:19.102Z,9.90
2022-09-20T06:01:34.036Z,9.94
2022-09-20T06:02:54.031Z,9.97
2022-09-20T06:04:24.130Z,10.05
2022-09-20T06:05:49.825Z,10.05
2022-09-20T06:07:13.873Z,10.04
2022-09-20T06:08:24.677Z,9.97
2022-09-20T06:09:57.811Z,10.01
2022-09-20T06:11:17.845Z,10.03
2022-09-20T06:12:41.096Z,10.05
2022-09-20T06:13:49.143Z,10.09
2022-09-20T06:15:04.026Z,10.11
2022-09-20T06:16:07.743Z,10.11
2022-09-20T06:17:21.485Z,10.07
2022-09-20T06:18:29.401Z,10.08
2022-09-20T06:19:45.926Z,10.13
2022-09-20T06:21:08.739Z,10.18
2022-09-20T06:22:23.490Z,10.30
2022-09-20T06:23:25.655Z,10.35
2022-09-20T06:24:45.071Z,10.33
2022-09-20T06:25:53.724Z,10.36
2022-09-20T06:26:57.832Z,10.34
2022-09-20T06:28:22.068Z,10.40
2022-09-20T06:29:34.654Z,10.40
2022-09-20T06:30:47.887Z,10.36
2022-09-20T06:31:49.474Z,10.48
2022-09-20T06:33:25.786Z,10.49
2022-09-20T06:34:28.845Z,10.44
2022-09-20T06:35:37.785Z,10.40
2022-09-20T06:37:18.070Z,10.44
2022-09-20T06:39:22.949Z,10.36
2022-09-20T06:40:57.589Z,10.28
2022-09-20T06:42:00.123Z,10.21
2022-09-20T06:43:03.999Z,10.25
2022-09-20T06:44:07.506Z,10.39
2022-09-20T06:45:09.171Z,10.33
2022-09-20T06:46:10.857Z,10.40
2022-09-20T06:47:13.974Z,10.50
2022-09-20T06:48:15.607Z,10.47
2022-09-20T06:49:17.392Z,10.49
2022-09-20T06:50:19.396Z,10.48
2022-09-20T06:51:22.660Z,10.49
2022-09-20T06:52:24.304Z,10.48
2022-09-20T06:53:29.386Z,10.40
2022-09-20T06:54:30.923Z,10.47
2022-09-20T06:55:38.871Z,10.32
2022-09-20T06:56:40.422Z,10.33
2022-09-20T06:57:41.866Z,10.32
2022-09-20T06:58:43.288Z,10.38
2022-09-20T07:00:06.382Z,10.43
2022-09-20T07:01:07.988Z,10.46
2022-09-20T07:02:11.023Z,10.44
2022-09-20T07:03:15.571Z,10.39
2022-09-20T07:04:17.180Z,10.43
2022-09-20T07:05:22.276Z,10.44
2022-09-20T07:06:23.704Z,10.48
2022-09-20T07:07:25.534Z,10.50
2022-09-20T07:08:27.282Z,10.55
2022-09-20T07:09:29.059Z,10.56
2022-09-20T07:10:30.986Z,10.54
2022-09-20T07:11:34.264Z,10.55
2022-09-20T07:12:35.743Z,10.49
2022-09-20T07:13:37.258Z,10.56
2022-09-20T07:14:39.302Z,10.59
2022-09-20T07:15:40.918Z,10.62
2022-09-20T07:16:42.455Z,10.65
2022-09-20T07:17:47.412Z,10.64
2022-09-20T07:18:49.672Z,10.63
2022-09-20T07:19:51.696Z,10.52
2022-09-20T07:20:54.223Z,10.58
2022-09-20T07:22:04.276Z,10.72
2022-09-20T07:23:05.806Z,10.77
2022-09-20T07:24:07.257Z,10.80
2022-09-20T07:25:09.424Z,10.65
2022-09-20T07:26:32.049Z,10.52
2022-09-20T07:27:33.522Z,10.46
2022-09-20T07:28:35.316Z,10.44
2022-09-20T07:29:37.098Z,10.46
2022-09-20T07:30:39.211Z,10.42
2022-09-20T07:31:40.702Z,10.47
2022-09-20T07:32:42.478Z,10.58
2022-09-20T07:33:44.880Z,10.62
2022-09-20T07:34:47.110Z,10.71
2022-09-20T07:35:49.022Z,10.77
2022-09-20T07:36:51.289Z,10.79
2022-09-20T07:37:57.413Z,10.83
2022-09-20T07:38:58.847Z,10.83
2022-09-20T07:40:00.880Z,10.84
2022-09-20T07:41:03.131Z,10.81
2022-09-20T07:42:06.526Z,10.70
2022-09-20T07:43:08.488Z,10.67
2022-09-20T07:44:24.286Z,10.71
2022-09-20T07:45:25.909Z,10.72
2022-09-20T07:46:27.391Z,10.81
2022-09-20T07:47:32.018Z,10.90
2022-09-20T07:48:39.486Z,10.94
2022-09-20T07:49:41.300Z,10.99
2022-09-20T07:50:50.950Z,11.02
2022-09-20T07:51:53.736Z,11.00
2022-09-20T07:52:57.464Z,10.89
2022-09-20T07:53:59.101Z,10.99
2022-09-20T07:55:00.605Z,11.00
2022-09-20T07:56:11.938Z,11.07
2022-09-20T07:57:13.457Z,11.08
2022-09-20T07:58:15.172Z,11.12
2022-09-20T07:59:16.977Z,11.20
2022-09-20T08:00:18.560Z,11.38
2022-09-20T08:01:22.601Z,11.51
2022-09-20T08:02:24.601Z,11.62
2022-09-20T08:03:26.576Z,11.67
2022-09-20T08:04:28.537Z,11.70
2022-09-20T08:05:31.296Z,11.40
2022-09-20T08:06:36.133Z,11.18
2022-09-20T08:07:38.574Z,11.17
2022-09-20T08:08:40.953Z,11.17
2022-09-20T08:09:43.280Z,11.19
2022-09-20T08:10:46.520Z,11.22
2022-09-20T08:11:48.626Z,11.14
2022-09-20T08:14:15.964Z,11.08
2022-09-20T08:15:17.846Z,11.16
2022-09-20T08:16:20.633Z,11.27
2022-09-20T08:17:22.859Z,11.31
2022-09-20T08:18:28.159Z,11.28
2022-09-20T08:19:30.671Z,11.36
2022-09-20T08:20:32.630Z,11.37
2022-09-20T08:21:35.781Z,11.40
2022-09-20T08:22:40.497Z,11.48
2022-09-20T08:23:44.209Z,11.35
2022-09-20T08:24:47.547Z,11.37
2022-09-20T08:25:49.834Z,11.41
2022-09-20T08:26:51.688Z,11.43
2022-09-20T08:27:54.311Z,11.10
2022-09-20T08:28:57.816Z,10.98
2022-09-20T08:30:02.629Z,11.05
2022-09-20T08:31:13.361Z,10.90
2022-09-20T08:32:15.178Z,11.06
2022-09-20T08:33:17.075Z,11.18
2022-09-20T08:34:19.188Z,11.20
2022-09-20T08:35:22.559Z,11.19
2022-09-20T08:36:25.997Z,11.08
2022-09-20T08:37:27.451Z,11.18
2022-09-20T08:39:59.385Z,11.37
2022-09-20T08:41:16.211Z,11.43
2022-09-20T08:42:43.844Z,11.46
2022-09-20T08:43:51.817Z,11.55
2022-09-20T08:45:05.410Z,11.52
2022-09-20T08:46:13.912Z,11.51
2022-09-20T08:47:25.647Z,11.42
2022-09-20T08:48:33.889Z,11.36
2022-09-20T08:49:36.509Z,11.40
2022-09-20T08:50:38.126Z,11.42
2022-09-20T08:51:41.717Z,11.37
2022-09-20T08:52:47.997Z,11.11
2022-09-20T08:53:52.516Z,11.02
2022-09-20T08:54:58.500Z,10.99
2022-09-20T08:56:01.388Z,10.95
2022-09-20T08:57:10.190Z,11.07
2022-09-20T08:58:14.175Z,11.13
2022-09-20T08:59:20.159Z,11.20
2022-09-20T09:00:25.710Z,11.26
2022-09-20T09:01:33.443Z,11.29
2022-09-20T09:02:35.495Z,11.11
2022-09-20T09:03:37.009Z,10.97
2022-09-20T09:04:38.830Z,10.77
2022-09-20T09:05:52.722Z,10.86
2022-09-20T09:06:54.142Z,10.96
2022-09-20T09:07:55.618Z,11.01
2022-09-20T09:08:59.814Z,10.96
2022-09-20T09:10:04.788Z,11.04
2022-09-20T09:11:09.532Z,11.15
2022-09-20T09:12:20.922Z,11.14
2022-09-20T09:13:28.856Z,11.18
2022-09-20T09:14:55.295Z,11.04
2022-09-20T09:16:00.719Z,11.16
2022-09-20T09:17:02.199Z,11.32
2022-09-20T09:18:09.185Z,11.37
2022-09-20T09:19:43.746Z,11.43
2022-09-20T09:20:46.795Z,11.50
2022-09-20T09:21:48.239Z,11.41
2022-09-20T09:23:09.169Z,11.40
2022-09-20T09:24:18.266Z,11.47
2022-09-20T09:25:19.930Z,11.51
2022-09-20T09:26:23.933Z,11.45
2022-09-20T09:27:25.554Z,11.42
2022-09-20T09:28:31.354Z,11.55
2022-09-20T09:29:34.884Z,11.59
2022-09-20T09:30:39.022Z,11.57
2022-09-20T09:31:40.593Z,11.71
2022-09-20T09:32:42.108Z,11.73
2022-09-20T09:33:45.572Z,11.79
2022-09-20T09:34:47.545Z,11.75
2022-09-20T09:36:14.839Z,11.72
2022-09-20T09:37:31.147Z,12.06
2022-09-20T09:38:33.810Z,12.14
2022-09-20T09:39:37.993Z,11.93
2022-09-20T09:40:50.540Z,12.11
2022-09-20T09:41:52.090Z,12.12
2022-09-20T09:42:57.003Z,12.09
2022-09-20T09:44:02.313Z,11.89
2022-09-20T09:45:28.159Z,12.01
2022-09-20T09:46:34.615Z,11.81
2022-09-20T09:47:37.379Z,11.84
2022-09-20T09:48:40.299Z,11.72
2022-09-20T09:50:02.571Z,11.76
2022-09-20T09:51:19.371Z,11.79
2022-09-20T09:52:24.772Z,11.70
2022-09-20T09:53:26.542Z,11.79
2022-09-20T09:54:37.824Z,11.88
2022-09-20T09:56:00.511Z,11.93
2022-09-20T09:57:20.575Z,12.00
2022-09-20T09:58:31.079Z,12.10
2022-09-20T09:59:51.469Z,12.18
2022-09-20T10:00:54.939Z,12.07
2022-09-20T10:02:21.634Z,12.03
2022-09-20T10:03:49.510Z,12.11
2022-09-20T10:05:14.135Z,12.17
2022-09-20T10:06:29.458Z,12.00
2022-09-20T10:07:54.511Z,11.96
2022-09-20T10:09:16.636Z,11.92
2022-09-20T10:10:21.373Z,12.03
2022-09-20T10:12:00.382Z,12.02
2022-09-20T10:13:22.179Z,12.08
2022-09-20T10:14:41.386Z,12.13
2022-09-20T10:15:45.789Z,12.20
2022-09-20T10:17:05.432Z,12.07
2022-09-20T10:18:07.297Z,11.97
2022-09-20T10:19:28.697Z,12.03
2022-09-20T10:21:20.784Z,11.89
2022-09-20T10:23:06.670Z,12.11
2022-09-20T10:24:31.110Z,12.31
2022-09-20T10:25:49.932Z,12.53
2022-09-20T10:27:22.222Z,12.53
2022-09-20T10:28:56.033Z,12.66
2022-09-20T10:30:12.398Z,12.59
2022-09-20T10:31:40.315Z,12.54
2022-09-20T10:32:49.887Z,12.48
2022-09-20T10:34:25.665Z,12.27
2022-09-20T10:35:29.980Z,12.28
2022-09-20T10:36:44.432Z,12.38
2022-09-20T10:38:15.300Z,12.44
2022-09-20T10:39:24.760Z,12.33
2022-09-20T10:40:59.747Z,12.36
2022-09-20T10:42:38.511Z,12.23
2022-09-20T10:44:04.208Z,11.88
2022-09-20T10:47:21.528Z,11.95
2022-09-20T10:48:31.613Z,12.03
2022-09-20T10:49:41.565Z,12.11
2022-09-20T10:50:57.022Z,12.20
2022-09-20T10:52:29.807Z,12.27
2022-09-20T10:54:00.193Z,12.41
2022-09-20T10:55:13.619Z,12.44
2022-09-20T10:56:36.889Z,12.49
2022-09-20T10:57:50.199Z,12.38
2022-09-20T10:59:40.310Z,12.50
2022-09-20T11:00:58.342Z,12.72
2022-09-20T11:02:37.226Z,12.66
2022-09-20T11:04:12.530Z,12.68
2022-09-20T11:05:43.908Z,12.65
2022-09-20T11:07:21.923Z,12.47
2022-09-20T11:08:28.443Z,12.50
2022-09-20T11:09:36.527Z,12.61
2022-09-20T11:10:45.113Z,12.85
2022-09-20T11:11:59.240Z,13.06
2022-09-20T11:13:24.864Z,13.06
2022-09-20T11:14:38.239Z,13.17
2022-09-20T11:15:52.967Z,13.23
2022-09-20T11:16:56.884Z,13.24
2022-09-20T11:18:01.021Z,13.07
2022-09-20T11:19:14.401Z,13.02
2022-09-20T11:20:22.360Z,13.06
2022-09-20T11:21:31.503Z,13.04
2022-09-20T11:23:21.334Z,13.03
2022-09-20T11:24:25.574Z,13.11
2022-09-20T11:25:53.002Z,13.17
2022-09-20T11:26:57.723Z,13.28
2022-09-20T11:28:15.633Z,13.37
2022-09-20T11:29:33.655Z,13.45
2022-09-20T11:30:41.177Z,13.38
2022-09-20T11:31:48.364Z,13.39
2022-09-20T11:32:56.618Z,13.57
2022-09-20T11:34:25.765Z,13.75
2022-09-20T11:35:35.823Z,13.65
2022-09-20T11:36:40.282Z,13.42
2022-09-20T11:37:47.795Z,13.40
2022-09-20T11:38:59.106Z,13.32
2022-09-20T11:40:05.088Z,13.36
2022-09-20T11:41:14.406Z,13.22
2022-09-20T11:42:23.796Z,13.23
2022-09-20T11:43:30.295Z,13.28
2022-09-20T11:44:32.889Z,13.44
2022-09-20T11:45:38.140Z,13.55
2022-09-20T11:47:03.804Z,13.79
2022-09-20T11:48:24.407Z,13.79
2022-09-20T11:49:44.326Z,13.72
2022-09-20T11:51:07.430Z,13.83
2022-09-20T11:52:30.154Z,13.82
2022-09-20T11:53:39.520Z,13.71
2022-09-20T11:55:05.376Z,13.82
2022-09-20T11:56:21.010Z,14.03
2022-09-20T11:57:23.203Z,13.99
2022-09-20T11:58:25.752Z,14.06
2022-09-20T11:59:37.056Z,14.17
2022-09-20T12:00:41.877Z,13.76
2022-09-20T12:01:43.667Z,13.69
2022-09-20T12:02:51.427Z,13.70
2022-09-20T12:04:20.549Z,13.87
2022-09-20T12:05:42.372Z,13.56
2022-09-20T12:06:43.851Z,13.47
2022-09-20T12:07:46.109Z,13.42
2022-09-20T12:08:51.376Z,13.25
2022-09-20T12:10:00.852Z,13.14
2022-09-20T12:11:06.329Z,13.04
2022-09-20T12:12:23.645Z,13.32
2022-09-20T12:13:27.651Z,13.41
2022-09-20T12:14:32.282Z,13.45
2022-09-20T12:15:39.863Z,13.44
2022-09-20T12:16:43.907Z,13.37
2022-09-20T12:17:48.090Z,13.57
2022-09-20T12:18:53.397Z,13.77
2022-09-20T12:19:55.132Z,13.75
2022-09-20T12:20:59.241Z,13.72
2022-09-20T12:22:00.582Z,13.88
2022-09-20T12:23:39.068Z,13.97
2022-09-20T12:24:45.191Z,13.87
2022-09-20T12:26:06.771Z,14.05
2022-09-20T12:27:41.526Z,13.88
2022-09-20T12:28:51.155Z,14.05
2022-09-20T12:30:04.011Z,14.10
2022-09-20T12:31:29.680Z,14.35
2022-09-20T12:32:37.027Z,14.42
2022-09-20T12:33:59.239Z,14.41
2022-09-20T12:35:00.992Z,14.49
2022-09-20T12:36:16.468Z,14.64
2022-09-20T12:37:25.127Z,14.82
2022-09-20T12:38:30.387Z,15.02
2022-09-20T12:39:34.773Z,14.95
2022-09-20T12:40:36.600Z,14.69
2022-09-20T12:41:58.788Z,14.66
2022-09-20T12:43:00.540Z,14.62
2022-09-20T12:44:05.769Z,14.41
2022-09-20T12:45:17.920Z,14.39
2022-09-20T12:46:26.714Z,14.16
2022-09-20T12:47:32.107Z,14.21
2022-09-20T12:48:37.330Z,14.12
2022-09-20T12:50:06.671Z,14.37
2022-09-20T12:51:51.280Z,14.24
2022-09-20T12:52:57.210Z,14.28
2022-09-20T12:54:17.651Z,14.18
2022-09-20T12:55:31.528Z,14.18
2022-09-20T12:56:36.653Z,14.30
2022-09-20T12:57:39.445Z,14.41
2022-09-20T12:58:53.465Z,14.45
2022-09-20T13:00:01.289Z,14.26
2022-09-20T13:01:08.400Z,14.24
2022-09-20T13:02:49.436Z,14.18
2022-09-20T13:03:51.116Z,14.28
2022-09-20T13:04:55.408Z,14.09
2022-09-20T13:06:19.955Z,14.17
2022-09-20T13:07:33.951Z,14.28
2022-09-20T13:08:39.716Z,14.30
2022-09-20T13:09:41.766Z,14.42
2022-09-20T13:11:12.470Z,14.59
2022-09-20T13:12:14.897Z,15.02
2022-09-20T13:13:31.559Z,15.34
2022-09-20T13:14:34.129Z,15.52
2022-09-20T13:15:36.011Z,15.74
2022-09-20T13:16:37.454Z,15.98
2022-09-20T13:17:41.345Z,16.07
2022-09-20T13:18:43.395Z,16.28
2022-09-20T13:19:47.106Z,16.53
2022-09-20T13:20:48.930Z,16.68
2022-09-20T13:21:53.242Z,16.92
2022-09-20T13:22:59.575Z,16.84
2022-09-20T13:24:03.431Z,16.72
2022-09-20T13:25:07.629Z,16.56
2022-09-20T13:26:11.113Z,16.33
2022-09-20T13:27:19.805Z,16.21
2022-09-20T13:28:44.315Z,16.08
2022-09-20T13:29:45.853Z,15.98
2022-09-20T13:30:47.479Z,15.94
2022-09-20T13:31:48.921Z,15.96
2022-09-20T13:32:51.473Z,15.97
2022-09-20T13:33:53.381Z,16.10
2022-09-20T13:35:07.071Z,16.15
2022-09-20T13:36:08.861Z,16.11
2022-09-20T13:37:23.647Z,16.11
2022-09-20T13:38:30.070Z,16.07
2022-09-20T13:39:37.225Z,15.92
2022-09-20T13:40:50.373Z,15.82
2022-09-20T13:41:53.043Z,15.77
2022-09-20T13:43:22.175Z,15.77
2022-09-20T13:44:21.897Z,15.74
2022-09-20T13:45:23.722Z,15.79
2022-09-20T13:46:31.631Z,15.77
2022-09-20T13:47:33.785Z,15.58
2022-09-20T13:48:35.767Z,15.49
2022-09-20T13:49:42.973Z,15.33
2022-09-20T13:50:48.033Z,15.50
2022-09-20T13:51:52.083Z,15.76
2022-09-20T13:52:57.051Z,15.84
2022-09-20T13:54:28.024Z,16.31
2022-09-20T13:55:34.371Z,16.34
2022-09-20T13:56:35.806Z,16.60
2022-09-20T13:57:40.452Z,16.71
2022-09-20T13:58:42.591Z,16.47
2022-09-20T13:59:46.587Z,16.26
2022-09-20T14:00:52.145Z,16.28
2022-09-20T14:01:55.522Z,16.28
2022-09-20T14:02:58.399Z,16.13
2022-09-20T14:04:04.984Z,16.10
2022-09-20T14:05:07.481Z,16.30
2022-09-20T14:06:14.670Z,16.46
2022-09-20T14:07:17.307Z,16.67
2022-09-20T14:08:24.760Z,17.07
2022-09-20T14:09:32.847Z,16.97
2022-09-20T14:10:43.230Z,17.31
2022-09-20T14:11:45.564Z,17.43
2022-09-20T14:12:49.190Z,17.08
2022-09-20T14:13:59.607Z,17.14
2022-09-20T14:15:08.465Z,17.23
2022-09-20T14:16:10.966Z,17.07
2022-09-20T14:17:18.737Z,17.17
2022-09-20T14:18:22.469Z,17.54
2022-09-20T14:19:33.371Z,17.82
2022-09-20T14:20:35.453Z,17.85
2022-09-20T14:21:38.343Z,17.77
2022-09-20T14:22:39.789Z,17.97
2022-09-20T14:24:02.680Z,17.67
2022-09-20T14:25:21.017Z,17.12
2022-09-20T14:26:24.513Z,17.15
2022-09-20T14:27:26.323Z,16.54
2022-09-20T14:28:31.181Z,16.13
2022-09-20T14:29:41.213Z,16.20
2022-09-20T14:30:42.926Z,16.25
2022-09-20T14:31:48.348Z,16.53
2022-09-20T14:32:55.712Z,16.81
2022-09-20T14:33:59.794Z,16.97
2022-09-20T14:35:13.517Z,16.81
2022-09-20T14:36:16.543Z,17.22
2022-09-20T14:37:29.634Z,17.15
2022-09-20T14:38:31.359Z,17.49
2022-09-20T14:39:35.028Z,17.27
2022-09-20T14:40:47.818Z,17.58
2022-09-20T14:41:50.845Z,17.73
2022-09-20T14:42:56.414Z,17.97
2022-09-20T14:43:59.860Z,18.24
2022-09-20T14:45:03.936Z,18.40
2022-09-20T14:46:12.943Z,18.45
2022-09-20T14:47:15.381Z,18.27
2022-09-20T14:48:16.806Z,17.86
2022-09-20T14:49:24.444Z,18.03
2022-09-20T14:50:31.027Z,17.84
2022-09-20T14:51:33.008Z,18.17
2022-09-20T14:52:39.358Z,18.22
2022-09-20T14:53:40.912Z,18.13
2022-09-20T14:54:42.341Z,18.04
2022-09-20T14:55:59.448Z,18.08
2022-09-20T14:57:01.635Z,17.93
2022-09-20T14:58:15.084Z,17.90
2022-09-20T14:59:19.672Z,17.88
2022-09-20T15:00:21.384Z,17.73
2022-09-20T15:01:24.891Z,17.39
2022-09-20T15:02:27.439Z,17.24
2022-09-20T15:03:32.529Z,17.29
2022-09-20T15:04:37.674Z,17.01
2022-09-20T15:05:39.686Z,16.87
2022-09-20T15:06:41.272Z,16.67
2022-09-20T15:07:42.730Z,16.62
2022-09-20T15:08:46.733Z,16.64
2022-09-20T15:09:48.781Z,16.38
2022-09-20T15:10:50.243Z,16.41
2022-09-20T15:12:01.743Z,16.13
2022-09-20T15:13:03.135Z,16.04
2022-09-20T15:14:04.585Z,16.00
2022-09-20T15:15:06.329Z,15.75
2022-09-20T15:16:08.377Z,15.78
2022-09-20T15:17:15.366Z,15.80
2022-09-20T15:18:26.392Z,15.78
2022-09-20T15:19:28.009Z,15.86
2022-09-20T15:20:29.640Z,15.59
2022-09-20T15:21:31.543Z,15.55
2022-09-20T15:22:33.884Z,15.57
2022-09-20T15:23:35.679Z,15.81
2022-09-20T15:24:37.636Z,15.83
2022-09-20T15:25:39.107Z,15.98
2022-09-20T15:26:40.602Z,16.22
2022-09-20T15:27:44.422Z,16.41
2022-09-20T15:28:45.912Z,16.54
2022-09-20T15:29:47.359Z,16.52
2022-09-20T15:30:50.933Z,16.56
2022-09-20T15:31:52.848Z,16.68
2022-09-20T15:32:54.396Z,16.86
2022-09-20T15:33:55.813Z,16.77
2022-09-20T15:34:57.432Z,16.87